Time,TemperatureF,DewpointF,PressureIn,WindDirection,WindDirectionDegrees,WindSpeedMPH,WindSpeedGustMPH,Humidity,HourlyPrecipIn,Conditions,Clouds,dailyrainin,SoftwareType,DateUTC
2013-07-18 00:00:00,77.5,69.1,29.23,NW,315,0.0,0.0,75,0.00,,,0.00,WUHU216WMR100,2013-07-18 04:00:00,
2013-07-18 00:01:00,77.5,69.1,29.23,NW,315,0.0,0.0,75,0.00,,,0.00,WUHU216WMR100,2013-07-18 04:01:00,
2013-07-18 00:06:00,77.4,69.0,29.23,NW,315,0.0,0.0,75,0.00,,,0.00,WUHU216WMR100,2013-07-18 04:06:00,
2013-07-18 00:11:00,77.2,68.8,29.23,NW,315,0.0,0.0,75,0.00,,,0.00,WUHU216WMR100,2013-07-18 04:11:00,
2013-07-18 00:16:00,77.0,68.6,29.23,NW,315,0.0,0.0,75,0.00,,,0.00,WUHU216WMR100,2013-07-18 04:16:00,
2013-07-18 00:23:00,77.2,69.2,29.21,NW,315,0.0,0.0,76,0.00,,,0.00,WUHU216WMR100,2013-07-18 04:23:00,
2013-07-18 00:28:00,77.0,69.0,29.21,NW,315,0.0,0.0,76,0.00,,,0.00,WUHU216WMR100,2013-07-18 04:28:00,
2013-07-18 00:33:00,77.0,69.0,29.21,NW,315,0.0,0.0,76,0.00,,,0.00,WUHU216WMR100,2013-07-18 04:33:00,
2013-07-18 00:38:00,77.0,69.4,29.21,NW,315,0.0,0.0,77,0.00,,,0.00,WUHU216WMR100,2013-07-18 04:38:00,
2013-07-18 00:43:00,76.8,69.5,29.21,NW,315,0.0,0.0,78,0.00,,,0.00,WUHU216WMR100,2013-07-18 04:43:00,
2013-07-18 00:48:00,76.6,69.4,29.21,NW,315,0.0,0.0,78,0.00,,,0.00,WUHU216WMR100,2013-07-18 04:48:00,
2013-07-18 00:53:00,76.5,69.3,29.21,NW,315,0.0,0.0,78,0.00,,,0.00,WUHU216WMR100,2013-07-18 04:53:00,
2013-07-18 00:58:00,76.5,69.6,29.21,NW,315,0.0,0.0,79,0.00,,,0.00,WUHU216WMR100,2013-07-18 04:58:00,
2013-07-18 01:03:00,76.3,69.1,29.21,NW,315,0.0,0.0,78,0.00,,,0.00,WUHU216WMR100,2013-07-18 05:03:00,
2013-07-18 01:08:00,76.3,69.4,29.21,NW,315,0.0,0.0,79,0.00,,,0.00,WUHU216WMR100,2013-07-18 05:08:00,
2013-07-18 01:13:00,76.1,69.2,29.21,NW,315,0.0,0.0,79,0.00,,,0.00,WUHU216WMR100,2013-07-18 05:13:00,
2013-07-18 01:18:00,75.9,69.4,29.21,NW,315,0.0,0.0,80,0.00,,,0.00,WUHU216WMR100,2013-07-18 05:18:00,
2013-07-18 01:23:00,76.1,69.6,29.21,NW,315,0.0,0.0,80,0.00,,,0.00,WUHU216WMR100,2013-07-18 05:23:00,
2013-07-18 01:28:00,76.1,69.6,29.21,NW,315,0.0,0.0,80,0.00,,,0.00,WUHU216WMR100,2013-07-18 05:28:00,
2013-07-18 01:33:00,75.9,69.4,29.21,NW,315,0.0,0.0,80,0.00,,,0.00,WUHU216WMR100,2013-07-18 05:33:00,
2013-07-18 01:38:00,75.9,69.4,29.21,NW,315,0.0,0.0,80,0.00,,,0.00,WUHU216WMR100,2013-07-18 05:38:00,
2013-07-18 01:43:00,75.9,69.7,29.21,NW,315,0.0,0.0,81,0.00,,,0.00,WUHU216WMR100,2013-07-18 05:43:00,
2013-07-18 01:48:00,75.7,69.9,29.18,NW,315,0.0,0.0,82,0.00,,,0.00,WUHU216WMR100,2013-07-18 05:48:00,
2013-07-18 01:53:00,75.7,70.2,29.18,NW,315,0.0,0.0,83,0.00,,,0.00,WUHU216WMR100,2013-07-18 05:53:00,
2013-07-18 01:58:00,75.6,70.1,29.18,NW,315,0.0,0.0,83,0.00,,,0.00,WUHU216WMR100,2013-07-18 05:58:00,
2013-07-18 02:03:00,75.4,69.9,29.18,NW,315,0.0,0.0,83,0.00,,,0.00,WUHU216WMR100,2013-07-18 06:03:00,
2013-07-18 02:08:00,75.2,69.7,29.18,NW,315,0.0,0.0,83,0.00,,,0.00,WUHU216WMR100,2013-07-18 06:08:00,
2013-07-18 02:13:00,75.2,70.1,29.18,NW,315,0.0,0.0,84,0.00,,,0.00,WUHU216WMR100,2013-07-18 06:13:00,
2013-07-18 02:21:00,75.0,69.9,29.18,NW,315,0.0,0.0,84,0.00,,,0.00,WUHU216WMR100,2013-07-18 06:21:00,
2013-07-18 02:26:00,74.8,70.0,29.18,NW,315,0.0,0.0,85,0.00,,,0.00,WUHU216WMR100,2013-07-18 06:26:00,
2013-07-18 02:31:00,74.8,70.0,29.18,NW,315,0.0,0.0,85,0.00,,,0.00,WUHU216WMR100,2013-07-18 06:31:00,
2013-07-18 02:35:00,74.8,70.4,29.18,NW,315,0.0,0.0,86,0.00,,,0.00,WUHU216WMR100,2013-07-18 06:35:00,
2013-07-18 02:41:00,74.7,70.6,29.18,NW,315,0.0,0.0,87,0.00,,,0.00,WUHU216WMR100,2013-07-18 06:41:00,
2013-07-18 02:46:00,74.7,70.6,29.18,NW,315,0.0,0.0,87,0.00,,,0.00,WUHU216WMR100,2013-07-18 06:46:00,
2013-07-18 02:51:00,74.7,70.6,29.18,NW,315,0.0,0.0,87,0.00,,,0.00,WUHU216WMR100,2013-07-18 06:51:00,
2013-07-18 02:56:00,74.5,70.4,29.18,NW,315,0.0,0.0,87,0.00,,,0.00,WUHU216WMR100,2013-07-18 06:56:00,
2013-07-18 03:01:00,74.5,70.4,29.18,NW,315,0.0,0.0,87,0.00,,,0.00,WUHU216WMR100,2013-07-18 07:01:00,
2013-07-18 03:06:00,74.5,70.4,29.18,NW,315,0.0,0.0,87,0.00,,,0.00,WUHU216WMR100,2013-07-18 07:06:00,
2013-07-18 03:11:00,74.3,70.2,29.18,NW,315,0.0,0.0,87,0.00,,,0.00,WUHU216WMR100,2013-07-18 07:11:00,
2013-07-18 03:16:00,74.1,70.0,29.18,NW,315,0.0,0.0,87,0.00,,,0.00,WUHU216WMR100,2013-07-18 07:16:00,
2013-07-18 03:21:00,74.1,70.0,29.18,NW,315,0.0,0.0,87,0.00,,,0.00,WUHU216WMR100,2013-07-18 07:21:00,
2013-07-18 03:26:00,73.9,69.8,29.18,NW,315,0.0,0.0,87,0.00,,,0.00,WUHU216WMR100,2013-07-18 07:26:00,
2013-07-18 03:31:00,73.9,70.1,29.18,NW,315,0.0,0.0,88,0.00,,,0.00,WUHU216WMR100,2013-07-18 07:31:00,
2013-07-18 03:36:00,73.9,70.1,29.18,NW,315,0.0,0.0,88,0.00,,,0.00,WUHU216WMR100,2013-07-18 07:36:00,
2013-07-18 03:41:00,73.9,70.1,29.18,NW,315,0.0,0.0,88,0.00,,,0.00,WUHU216WMR100,2013-07-18 07:41:00,
2013-07-18 03:46:00,73.8,70.0,29.18,NW,315,0.0,0.0,88,0.00,,,0.00,WUHU216WMR100,2013-07-18 07:46:00,
2013-07-18 03:51:00,73.8,70.0,29.18,NW,315,0.0,0.0,88,0.00,,,0.00,WUHU216WMR100,2013-07-18 07:51:00,
2013-07-18 03:56:00,73.6,69.8,29.18,NW,315,0.0,0.0,88,0.00,,,0.00,WUHU216WMR100,2013-07-18 07:56:00,
2013-07-18 04:01:00,73.6,69.8,29.18,NW,315,0.0,0.0,88,0.00,,,0.00,WUHU216WMR100,2013-07-18 08:01:00,
2013-07-18 04:06:00,73.4,69.6,29.18,NW,315,0.0,0.0,88,0.00,,,0.00,WUHU216WMR100,2013-07-18 08:06:00,
2013-07-18 04:11:00,73.4,69.6,29.18,NW,315,0.0,0.0,88,0.00,,,0.00,WUHU216WMR100,2013-07-18 08:11:00,
2013-07-18 04:16:00,73.4,70.0,29.18,NW,315,0.0,0.0,89,0.00,,,0.00,WUHU216WMR100,2013-07-18 08:16:00,
2013-07-18 04:21:00,73.4,70.0,29.18,NW,315,0.0,0.0,89,0.00,,,0.00,WUHU216WMR100,2013-07-18 08:21:00,
2013-07-18 04:26:00,73.6,70.2,29.18,NW,315,0.0,0.0,89,0.00,,,0.00,WUHU216WMR100,2013-07-18 08:26:00,
2013-07-18 04:31:00,73.4,70.0,29.18,NW,315,0.0,0.0,89,0.00,,,0.00,WUHU216WMR100,2013-07-18 08:31:00,
2013-07-18 04:36:00,73.4,70.0,29.18,NW,315,0.0,0.0,89,0.00,,,0.00,WUHU216WMR100,2013-07-18 08:36:00,
2013-07-18 04:41:00,73.4,70.0,29.18,NW,315,0.0,0.0,89,0.00,,,0.00,WUHU216WMR100,2013-07-18 08:41:00,
2013-07-18 04:46:00,73.2,70.1,29.18,NW,315,0.0,0.0,90,0.00,,,0.00,WUHU216WMR100,2013-07-18 08:46:00,
2013-07-18 04:51:00,73.2,70.1,29.18,NW,315,0.0,0.0,90,0.00,,,0.00,WUHU216WMR100,2013-07-18 08:51:00,
2013-07-18 04:56:00,73.2,70.1,29.18,NW,315,0.0,0.0,90,0.00,,,0.00,WUHU216WMR100,2013-07-18 08:56:00,
2013-07-18 05:01:00,73.0,69.9,29.18,NW,315,0.0,0.0,90,0.00,,,0.00,WUHU216WMR100,2013-07-18 09:01:00,
2013-07-18 05:06:00,73.0,70.2,29.18,NW,315,0.0,0.0,91,0.00,,,0.00,WUHU216WMR100,2013-07-18 09:06:00,
2013-07-18 05:11:00,73.0,70.2,29.18,NW,315,0.0,0.0,91,0.00,,,0.00,WUHU216WMR100,2013-07-18 09:11:00,
2013-07-18 05:16:00,72.9,70.1,29.18,NW,315,0.0,0.0,91,0.00,,,0.00,WUHU216WMR100,2013-07-18 09:16:00,
2013-07-18 05:21:00,72.9,70.1,29.18,NW,315,0.0,0.0,91,0.00,,,0.00,WUHU216WMR100,2013-07-18 09:21:00,
2013-07-18 05:26:00,72.9,70.1,29.18,NW,315,0.0,0.0,91,0.00,,,0.00,WUHU216WMR100,2013-07-18 09:26:00,
2013-07-18 05:31:00,72.9,70.1,29.18,NW,315,0.0,0.0,91,0.00,,,0.00,WUHU216WMR100,2013-07-18 09:31:00,
2013-07-18 05:36:00,72.9,70.1,29.18,NW,315,0.0,0.0,91,0.00,,,0.00,WUHU216WMR100,2013-07-18 09:36:00,
2013-07-18 05:41:00,72.9,70.1,29.18,NW,315,0.0,0.0,91,0.00,,,0.00,WUHU216WMR100,2013-07-18 09:41:00,
2013-07-18 05:46:00,72.7,69.9,29.18,NW,315,0.0,0.0,91,0.00,,,0.00,WUHU216WMR100,2013-07-18 09:46:00,
2013-07-18 05:51:00,72.7,70.2,29.18,NW,315,0.0,0.0,92,0.00,,,0.00,WUHU216WMR100,2013-07-18 09:51:00,
2013-07-18 05:56:00,72.7,70.2,29.18,NW,315,0.0,0.0,92,0.00,,,0.00,WUHU216WMR100,2013-07-18 09:56:00,
2013-07-18 06:01:00,72.7,70.2,29.18,NW,315,0.0,0.0,92,0.00,,,0.00,WUHU216WMR100,2013-07-18 10:01:00,
2013-07-18 06:06:00,72.7,70.2,29.18,NW,315,0.0,0.0,92,0.00,,,0.00,WUHU216WMR100,2013-07-18 10:06:00,
2013-07-18 06:11:00,72.7,70.2,29.18,NW,315,0.0,0.0,92,0.00,,,0.00,WUHU216WMR100,2013-07-18 10:11:00,
2013-07-18 06:16:00,72.7,70.5,29.18,NW,315,0.0,0.0,93,0.00,,,0.00,WUHU216WMR100,2013-07-18 10:16:00,
2013-07-18 06:21:00,72.7,70.5,29.18,NW,315,0.0,0.0,93,0.00,,,0.00,WUHU216WMR100,2013-07-18 10:21:00,
2013-07-18 06:26:00,72.7,70.5,29.18,NW,315,0.0,0.0,93,0.00,,,0.00,WUHU216WMR100,2013-07-18 10:26:00,
2013-07-18 06:31:00,72.9,70.7,29.18,NW,315,0.0,0.0,93,0.00,,,0.00,WUHU216WMR100,2013-07-18 10:31:00,
2013-07-18 06:36:00,73.0,70.8,29.18,NW,315,0.0,0.0,93,0.00,,,0.00,WUHU216WMR100,2013-07-18 10:36:00,
2013-07-18 06:41:00,73.0,70.8,29.18,NW,315,0.0,0.0,93,0.00,,,0.00,WUHU216WMR100,2013-07-18 10:41:00,
2013-07-18 06:46:00,73.0,70.8,29.18,NW,315,0.0,0.0,93,0.00,,,0.00,WUHU216WMR100,2013-07-18 10:46:00,
2013-07-18 06:51:00,73.4,71.2,29.18,NW,315,0.0,0.0,93,0.00,,,0.00,WUHU216WMR100,2013-07-18 10:51:00,
2013-07-18 06:56:00,73.8,71.6,29.18,NW,315,0.0,0.0,93,0.00,,,0.00,WUHU216WMR100,2013-07-18 10:56:00,
2013-07-18 07:01:00,74.3,72.1,29.18,NW,315,0.0,0.0,93,0.00,,,0.00,WUHU216WMR100,2013-07-18 11:01:00,
2013-07-18 07:06:00,74.8,72.6,29.18,NW,315,0.0,0.0,93,0.00,,,0.00,WUHU216WMR100,2013-07-18 11:06:00,
2013-07-18 07:11:00,75.4,73.2,29.18,NW,315,0.0,0.0,93,0.00,,,0.00,WUHU216WMR100,2013-07-18 11:11:00,
2013-07-18 07:16:00,75.9,73.4,29.18,NW,315,0.0,0.0,92,0.00,,,0.00,WUHU216WMR100,2013-07-18 11:16:00,
2013-07-18 07:21:00,76.6,74.1,29.18,NW,315,0.0,0.0,92,0.00,,,0.00,WUHU216WMR100,2013-07-18 11:21:00,
2013-07-18 07:26:00,77.2,74.4,29.18,NW,315,0.0,0.0,91,0.00,,,0.00,WUHU216WMR100,2013-07-18 11:26:00,
2013-07-18 07:31:00,77.7,74.5,29.18,NW,315,0.0,0.0,90,0.00,,,0.00,WUHU216WMR100,2013-07-18 11:31:00,
2013-07-18 07:36:00,78.1,74.6,29.18,NW,315,0.0,0.0,89,0.00,,,0.00,WUHU216WMR100,2013-07-18 11:36:00,
2013-07-18 07:41:00,78.8,74.3,29.18,NW,315,0.0,0.0,86,0.00,,,0.00,WUHU216WMR100,2013-07-18 11:41:00,
2013-07-18 07:46:00,79.0,73.8,29.18,NW,315,0.0,0.0,84,0.00,,,0.00,WUHU216WMR100,2013-07-18 11:46:00,
2013-07-18 07:51:00,79.5,73.6,29.18,NW,315,0.0,0.0,82,0.00,,,0.00,WUHU216WMR100,2013-07-18 11:51:00,
2013-07-18 07:56:00,80.2,73.9,29.18,NW,315,0.0,0.0,81,0.00,,,0.00,WUHU216WMR100,2013-07-18 11:56:00,
2013-07-18 08:01:00,80.4,72.7,29.18,NW,315,0.0,0.0,77,0.00,,,0.00,WUHU216WMR100,2013-07-18 12:01:00,
2013-07-18 08:06:00,81.0,72.9,29.18,NW,315,0.0,0.0,76,0.00,,,0.00,WUHU216WMR100,2013-07-18 12:06:00,
2013-07-18 08:11:00,81.1,72.6,29.18,WSW,247,0.0,0.0,75,0.00,,,0.00,WUHU216WMR100,2013-07-18 12:11:00,
2013-07-18 08:16:00,81.7,72.0,29.18,WSW,247,0.0,0.0,72,0.00,,,0.00,WUHU216WMR100,2013-07-18 12:16:00,
2013-07-18 08:21:00,82.4,72.3,29.18,WSW,247,0.0,0.0,71,0.00,,,0.00,WUHU216WMR100,2013-07-18 12:21:00,
2013-07-18 08:26:00,83.1,72.1,29.18,WSW,247,0.0,0.0,69,0.00,,,0.00,WUHU216WMR100,2013-07-18 12:26:00,
2013-07-18 08:31:00,83.5,72.1,29.18,NNW,337,0.0,0.0,68,0.00,,,0.00,WUHU216WMR100,2013-07-18 12:31:00,
2013-07-18 08:36:00,83.7,71.4,29.18,WNW,292,0.0,0.0,66,0.00,,,0.00,WUHU216WMR100,2013-07-18 12:36:00,
2013-07-18 08:41:00,83.8,71.0,29.18,WNW,292,1.7,3.6,65,0.00,,,0.00,WUHU216WMR100,2013-07-18 12:41:00,
2013-07-18 08:46:00,84.4,71.6,29.18,WNW,292,1.3,3.6,65,0.00,,,0.00,WUHU216WMR100,2013-07-18 12:46:00,
2013-07-18 08:51:00,84.7,71.4,29.18,NNW,337,1.6,3.4,64,0.00,,,0.00,WUHU216WMR100,2013-07-18 12:51:00,
2013-07-18 08:56:00,85.3,71.6,29.18,NNW,337,0.0,3.4,63,0.00,,,0.00,WUHU216WMR100,2013-07-18 12:56:00,
2013-07-18 09:01:00,86.0,72.2,29.18,NNW,337,0.0,1.6,63,0.00,,,0.00,WUHU216WMR100,2013-07-18 13:01:00,
2013-07-18 09:06:00,86.0,70.3,29.18,North,0,3.1,4.7,59,0.00,,,0.00,WUHU216WMR100,2013-07-18 13:06:00,
2013-07-18 09:11:00,86.7,71.4,29.18,North,0,1.0,4.7,60,0.00,,,0.00,WUHU216WMR100,2013-07-18 13:11:00,
2013-07-18 09:16:00,87.1,71.8,29.18,North,0,0.0,4.3,60,0.00,,,0.00,WUHU216WMR100,2013-07-18 13:16:00,
2013-07-18 09:21:00,87.4,71.1,29.18,WSW,252,1.8,2.9,58,0.00,,,0.00,WUHU216WMR100,2013-07-18 13:21:00,
2013-07-18 09:26:00,88.2,70.8,29.18,NNW,337,2.0,2.9,56,0.00,,,0.00,WUHU216WMR100,2013-07-18 13:26:00,
2013-07-18 09:31:00,88.3,70.3,29.18,North,0,2.5,4.0,55,0.00,,,0.00,WUHU216WMR100,2013-07-18 13:31:00,
2013-07-18 09:36:00,88.7,70.2,29.18,North,0,2.7,5.4,54,0.00,,,0.00,WUHU216WMR100,2013-07-18 13:36:00,
2013-07-18 09:42:00,89.1,70.0,29.18,WNW,292,2.5,5.8,53,0.00,,,0.00,WUHU216WMR100,2013-07-18 13:42:00,
2013-07-18 09:47:00,89.4,69.7,29.18,North,0,2.2,4.3,52,0.00,,,0.00,WUHU216WMR100,2013-07-18 13:47:00,
2013-07-18 09:52:00,89.6,69.9,29.18,North,0,3.1,3.6,52,0.00,,,0.00,WUHU216WMR100,2013-07-18 13:52:00,
2013-07-18 09:57:00,90.3,69.9,29.18,North,0,1.1,3.6,51,0.00,,,0.00,WUHU216WMR100,2013-07-18 13:57:00,
2013-07-18 10:02:00,90.7,68.5,29.18,North,0,2.9,4.0,48,0.00,,,0.00,WUHU216WMR100,2013-07-18 14:02:00,
2013-07-18 10:07:00,91.6,69.9,29.18,North,0,2.9,4.0,49,0.00,,,0.00,WUHU216WMR100,2013-07-18 14:07:00,
2013-07-18 10:12:00,91.8,69.5,29.18,North,0,2.9,2.9,48,0.00,,,0.00,WUHU216WMR100,2013-07-18 14:12:00,
2013-07-18 10:17:00,92.8,69.7,29.18,North,0,2.9,2.9,47,0.00,,,0.00,WUHU216WMR100,2013-07-18 14:17:00,
2013-07-18 10:22:00,92.8,67.8,29.18,North,0,2.9,2.9,44,0.00,,,0.00,WUHU216WMR100,2013-07-18 14:22:00,
2013-07-18 10:27:00,92.8,68.4,29.18,NW,319,2.8,2.9,45,0.00,,,0.00,WUHU216WMR100,2013-07-18 14:27:00,
2013-07-18 10:32:00,93.6,67.1,29.18,NNW,348,3.0,3.8,42,0.00,,,0.00,WUHU216WMR100,2013-07-18 14:32:00,
2013-07-18 10:37:00,94.3,67.7,29.18,NNW,327,1.4,3.8,42,0.00,,,0.00,WUHU216WMR100,2013-07-18 14:37:00,
2013-07-18 10:42:00,94.3,67.0,29.18,WNW,292,3.1,3.1,41,0.00,,,0.00,WUHU216WMR100,2013-07-18 14:42:00,
2013-07-18 10:47:00,95.2,67.8,29.18,WNW,292,1.8,3.1,41,0.00,,,0.00,WUHU216WMR100,2013-07-18 14:47:00,
2013-07-18 10:52:00,95.4,65.0,29.18,NNW,337,0.0,3.1,37,0.00,,,0.00,WUHU216WMR100,2013-07-18 14:52:00,
2013-07-18 10:57:00,95.9,67.0,29.18,North,0,1.6,3.1,39,0.00,,,0.00,WUHU216WMR100,2013-07-18 14:57:00,
2013-07-18 11:02:00,94.3,65.5,29.18,SSW,202,1.5,3.1,39,0.00,,,0.00,WUHU216WMR100,2013-07-18 15:02:00,
2013-07-18 11:07:00,92.3,64.5,29.18,SSW,202,0.0,3.1,40,0.00,,,0.00,WUHU216WMR100,2013-07-18 15:07:00,
2013-07-18 11:12:00,91.8,64.8,29.18,WNW,292,0.9,2.5,41,0.00,,,0.00,WUHU216WMR100,2013-07-18 15:12:00,
2013-07-18 11:17:00,94.5,67.2,29.18,West,270,1.6,3.4,41,0.00,,,0.00,WUHU216WMR100,2013-07-18 15:17:00,
2013-07-18 11:22:00,95.9,67.0,29.18,North,0,3.1,4.3,39,0.00,,,0.00,WUHU216WMR100,2013-07-18 15:22:00,
2013-07-18 11:27:00,97.0,67.2,29.18,WNW,292,1.1,4.3,38,0.00,,,0.00,WUHU216WMR100,2013-07-18 15:27:00,
2013-07-18 11:32:00,97.0,63.9,29.18,NW,321,2.8,6.3,34,0.00,,,0.00,WUHU216WMR100,2013-07-18 15:32:00,
2013-07-18 11:37:00,97.2,63.2,29.18,WNW,292,4.0,6.3,33,0.00,,,0.00,WUHU216WMR100,2013-07-18 15:37:00,
2013-07-18 11:42:00,98.8,65.5,29.18,WNW,292,2.2,5.8,34,0.00,,,0.00,WUHU216WMR100,2013-07-18 15:42:00,
2013-07-18 11:47:00,96.1,63.1,29.18,WSW,247,2.9,4.0,34,0.00,,,0.00,WUHU216WMR100,2013-07-18 15:47:00,
2013-07-18 11:52:00,93.7,62.7,29.18,NW,321,2.2,5.6,36,0.00,,,0.00,WUHU216WMR100,2013-07-18 15:52:00,
2013-07-18 11:57:00,94.6,64.3,29.18,West,270,4.0,5.6,37,0.00,,,0.00,WUHU216WMR100,2013-07-18 15:57:00,
2013-07-18 12:02:00,96.3,65.0,29.18,NW,320,3.0,5.4,36,0.00,,,0.00,WUHU216WMR100,2013-07-18 16:02:00,
2013-07-18 12:07:00,97.9,63.8,29.18,WNW,292,2.9,5.8,33,0.00,,,0.00,WUHU216WMR100,2013-07-18 16:07:00,
2013-07-18 12:12:00,97.7,62.8,29.18,SW,235,2.5,5.8,32,0.00,,,0.00,WUHU216WMR100,2013-07-18 16:12:00,
2013-07-18 12:17:00,99.0,63.9,29.15,NNW,337,2.7,4.3,32,0.00,,,0.00,WUHU216WMR100,2013-07-18 16:17:00,
2013-07-18 12:22:00,95.9,60.3,29.15,NW,313,3.3,5.8,31,0.00,,,0.00,WUHU216WMR100,2013-07-18 16:22:00,
2013-07-18 12:30:00,96.6,64.4,29.15,WNW,297,2.8,5.6,35,0.00,,,0.00,WUHU216WMR100,2013-07-18 16:30:00,
2013-07-18 12:35:00,96.8,62.9,29.15,NNW,331,4.7,7.4,33,0.00,,,0.00,WUHU216WMR100,2013-07-18 16:35:00,
2013-07-18 12:40:00,96.4,59.8,29.15,NNW,337,4.3,7.8,30,0.00,,,0.00,WUHU216WMR100,2013-07-18 16:40:00,
2013-07-18 12:45:00,95.2,60.6,29.15,NW,315,2.2,7.8,32,0.00,,,0.00,WUHU216WMR100,2013-07-18 16:45:00,
2013-07-18 12:50:00,96.1,61.4,29.15,WSW,240,1.6,7.4,32,0.00,,,0.00,WUHU216WMR100,2013-07-18 16:50:00,
2013-07-18 12:55:00,97.7,61.0,29.15,NW,315,3.8,6.3,30,0.00,,,0.00,WUHU216WMR100,2013-07-18 16:55:00,
2013-07-18 13:00:00,99.0,62.1,29.15,North,356,2.4,7.8,30,0.00,,,0.00,WUHU216WMR100,2013-07-18 17:00:00,
2013-07-18 13:05:00,99.3,61.4,29.18,WSW,247,2.9,7.8,29,0.00,,,0.00,WUHU216WMR100,2013-07-18 17:05:00,
2013-07-18 13:10:00,99.7,60.7,29.18,North,0,3.6,5.8,28,0.00,,,0.00,WUHU216WMR100,2013-07-18 17:10:00,
2013-07-18 13:15:00,98.4,60.6,29.18,North,0,3.1,6.9,29,0.00,,,0.00,WUHU216WMR100,2013-07-18 17:15:00,
2013-07-18 13:21:00,95.4,59.0,29.15,West,281,3.8,6.9,30,0.00,,,0.00,WUHU216WMR100,2013-07-18 17:21:00,
2013-07-18 13:26:00,94.8,60.3,29.15,NW,315,4.9,7.8,32,0.00,,,0.00,WUHU216WMR100,2013-07-18 17:26:00,
2013-07-18 13:31:00,97.3,59.7,29.15,NW,315,4.3,7.8,29,0.00,,,0.00,WUHU216WMR100,2013-07-18 17:31:00,
2013-07-18 13:36:00,99.0,61.1,29.15,ENE,67,2.7,6.0,29,0.00,,,0.00,WUHU216WMR100,2013-07-18 17:36:00,
2013-07-18 13:42:00,94.8,59.4,29.15,NNW,332,4.4,7.6,31,0.00,,,0.00,WUHU216WMR100,2013-07-18 17:42:00,
2013-07-18 13:47:00,93.6,59.2,29.15,NW,309,2.9,7.6,32,0.00,,,0.00,WUHU216WMR100,2013-07-18 17:47:00,
2013-07-18 13:52:00,93.0,61.2,29.15,North,356,1.7,5.4,35,0.00,,,0.00,WUHU216WMR100,2013-07-18 17:52:00,
2013-07-18 13:57:00,95.4,63.4,29.15,NW,315,2.2,4.3,35,0.00,,,0.00,WUHU216WMR100,2013-07-18 17:57:00,
2013-07-18 14:02:00,97.0,62.2,29.15,SW,221,2.5,4.0,32,0.00,,,0.00,WUHU216WMR100,2013-07-18 18:02:00,
2013-07-18 14:07:00,98.4,63.4,29.15,SSE,157,2.5,4.3,32,0.00,,,0.00,WUHU216WMR100,2013-07-18 18:07:00,
2013-07-18 14:12:00,99.3,61.4,29.15,SW,225,3.1,4.9,29,0.00,,,0.00,WUHU216WMR100,2013-07-18 18:12:00,
2013-07-18 14:17:00,99.0,60.1,29.15,SSW,195,3.1,4.9,28,0.00,,,0.00,WUHU216WMR100,2013-07-18 18:17:00,
2013-07-18 14:22:00,100.4,61.3,29.15,SW,214,2.0,4.9,28,0.00,,,0.00,WUHU216WMR100,2013-07-18 18:22:00,
2013-07-18 14:27:00,100.8,59.6,29.15,WSW,242,2.6,4.7,26,0.00,,,0.00,WUHU216WMR100,2013-07-18 18:27:00,
2013-07-18 14:32:00,99.9,58.8,29.12,NW,315,3.6,4.9,26,0.00,,,0.00,WUHU216WMR100,2013-07-18 18:32:00,
2013-07-18 14:37:00,97.2,58.6,29.12,NW,318,4.3,8.7,28,0.00,,,0.00,WUHU216WMR100,2013-07-18 18:37:00,
2013-07-18 14:42:00,96.3,58.8,29.12,WNW,292,3.8,8.7,29,0.00,,,0.00,WUHU216WMR100,2013-07-18 18:42:00,
2013-07-18 14:47:00,95.0,58.6,29.12,NW,305,3.0,6.3,30,0.00,,,0.00,WUHU216WMR100,2013-07-18 18:47:00,
2013-07-18 14:52:00,94.3,59.8,29.12,NW,315,3.4,5.4,32,0.00,,,0.00,WUHU216WMR100,2013-07-18 18:52:00,
2013-07-18 14:57:00,94.1,60.5,29.12,NNW,335,2.3,4.3,33,0.00,,,0.00,WUHU216WMR100,2013-07-18 18:57:00,
2013-07-18 15:02:00,95.4,60.8,29.12,NW,315,4.0,10.1,32,0.00,,,0.00,WUHU216WMR100,2013-07-18 19:02:00,
2013-07-18 15:07:00,97.3,60.6,29.12,WNW,292,3.6,10.1,30,0.00,,,0.00,WUHU216WMR100,2013-07-18 19:07:00,
2013-07-18 15:12:00,96.3,60.7,29.12,ESE,112,2.0,7.4,31,0.00,,,0.00,WUHU216WMR100,2013-07-18 19:12:00,
2013-07-18 15:17:00,94.6,59.2,29.12,NW,315,3.8,6.5,31,0.00,,,0.00,WUHU216WMR100,2013-07-18 19:17:00,
2013-07-18 15:22:00,94.6,61.0,29.12,WNW,292,3.8,6.5,33,0.00,,,0.00,WUHU216WMR100,2013-07-18 19:22:00,
2013-07-18 15:27:00,97.2,61.5,29.12,NW,324,3.7,5.6,31,0.00,,,0.00,WUHU216WMR100,2013-07-18 19:27:00,
2013-07-18 15:32:00,97.5,61.7,29.12,NW,315,2.9,5.6,31,0.00,,,0.00,WUHU216WMR100,2013-07-18 19:32:00,
2013-07-18 15:37:00,98.4,60.6,29.12,WNW,303,3.0,5.4,29,0.00,,,0.00,WUHU216WMR100,2013-07-18 19:37:00,
2013-07-18 15:42:00,99.1,60.2,29.12,West,270,3.1,6.9,28,0.00,,,0.00,WUHU216WMR100,2013-07-18 19:42:00,
2013-07-18 15:47:00,97.9,60.2,29.12,NNW,337,4.5,6.9,29,0.00,,,0.00,WUHU216WMR100,2013-07-18 19:47:00,
2013-07-18 15:52:00,99.5,61.6,29.12,North,0,3.1,8.1,29,0.00,,,0.00,WUHU216WMR100,2013-07-18 19:52:00,
2013-07-18 15:57:00,99.3,60.4,29.12,WNW,291,3.7,8.1,28,0.00,,,0.00,WUHU216WMR100,2013-07-18 19:57:00,
2013-07-18 16:02:00,98.6,59.8,29.12,WNW,283,3.4,7.8,28,0.00,,,0.00,WUHU216WMR100,2013-07-18 20:02:00,
2013-07-18 16:07:00,98.2,58.4,29.12,NNW,337,4.7,7.8,27,0.00,,,0.00,WUHU216WMR100,2013-07-18 20:07:00,
2013-07-18 16:12:00,95.4,58.0,29.12,WNW,302,2.3,7.8,29,0.00,,,0.00,WUHU216WMR100,2013-07-18 20:12:00,
2013-07-18 16:17:00,94.5,59.1,29.09,NNW,337,2.5,5.6,31,0.00,,,0.00,WUHU216WMR100,2013-07-18 20:17:00,
2013-07-18 16:22:00,96.4,60.8,29.09,WNW,292,2.4,4.3,31,0.00,,,0.00,WUHU216WMR100,2013-07-18 20:22:00,
2013-07-18 16:27:00,95.9,60.3,29.09,WNW,292,3.4,4.3,31,0.00,,,0.00,WUHU216WMR100,2013-07-18 20:27:00,
2013-07-18 16:32:00,94.3,59.8,29.09,WNW,301,2.4,4.7,32,0.00,,,0.00,WUHU216WMR100,2013-07-18 20:32:00,
2013-07-18 16:37:00,93.4,59.9,29.09,WNW,292,1.1,4.7,33,0.00,,,0.00,WUHU216WMR100,2013-07-18 20:37:00,
2013-07-18 16:42:00,96.4,63.4,29.09,ENE,67,2.2,3.6,34,0.00,,,0.00,WUHU216WMR100,2013-07-18 20:42:00,
2013-07-18 16:47:00,97.7,62.8,29.09,WNW,302,2.9,3.8,32,0.00,,,0.00,WUHU216WMR100,2013-07-18 20:47:00,
2013-07-18 16:52:00,98.2,60.4,29.09,WNW,294,2.7,6.5,29,0.00,,,0.00,WUHU216WMR100,2013-07-18 20:52:00,
2013-07-18 16:57:00,98.4,60.6,29.09,WNW,302,2.2,6.5,29,0.00,,,0.00,WUHU216WMR100,2013-07-18 20:57:00,
2013-07-18 17:02:00,95.9,58.5,29.09,WSW,247,1.6,6.5,29,0.00,,,0.00,WUHU216WMR100,2013-07-18 21:02:00,
2013-07-18 17:07:00,96.4,59.8,29.09,WNW,299,2.5,4.7,30,0.00,,,0.00,WUHU216WMR100,2013-07-18 21:07:00,
2013-07-18 17:12:00,95.9,59.4,29.09,WSW,247,2.2,4.0,30,0.00,,,0.00,WUHU216WMR100,2013-07-18 21:12:00,
2013-07-18 17:17:00,97.2,60.5,29.09,West,269,2.0,3.8,30,0.00,,,0.00,WUHU216WMR100,2013-07-18 21:17:00,
2013-07-18 17:22:00,96.6,60.0,29.09,NNW,331,3.5,4.3,30,0.00,,,0.00,WUHU216WMR100,2013-07-18 21:22:00,
2013-07-18 17:28:00,97.5,59.8,29.09,NW,315,3.8,5.6,29,0.00,,,0.00,WUHU216WMR100,2013-07-18 21:28:00,
2013-07-18 17:33:00,97.9,59.2,29.09,WSW,247,3.6,5.6,28,0.00,,,0.00,WUHU216WMR100,2013-07-18 21:33:00,
2013-07-18 17:38:00,98.4,60.6,29.09,NW,315,3.1,5.6,29,0.00,,,0.00,WUHU216WMR100,2013-07-18 21:38:00,
2013-07-18 17:43:00,98.4,59.6,29.09,SW,230,2.5,5.4,28,0.00,,,0.00,WUHU216WMR100,2013-07-18 21:43:00,
2013-07-18 17:48:00,99.0,59.1,29.06,WNW,292,2.5,5.4,27,0.00,,,0.00,WUHU216WMR100,2013-07-18 21:48:00,
2013-07-18 17:53:00,98.4,58.6,29.06,NW,315,2.8,3.4,27,0.00,,,0.00,WUHU216WMR100,2013-07-18 21:53:00,
2013-07-18 17:58:00,98.4,59.6,29.06,NW,309,3.1,4.3,28,0.00,,,0.00,WUHU216WMR100,2013-07-18 21:58:00,
2013-07-18 18:03:00,97.3,57.7,29.06,NW,314,2.4,4.5,27,0.00,,,0.00,WUHU216WMR100,2013-07-18 22:03:00,
2013-07-18 18:08:00,96.4,57.9,29.06,SSW,202,1.5,4.5,28,0.00,,,0.00,WUHU216WMR100,2013-07-18 22:08:00,
2013-07-18 18:13:00,97.2,58.6,29.06,SSE,157,1.5,3.6,28,0.00,,,0.00,WUHU216WMR100,2013-07-18 22:13:00,
2013-07-18 18:18:00,97.3,58.7,29.06,WSW,247,2.0,4.3,28,0.00,,,0.00,WUHU216WMR100,2013-07-18 22:18:00,
2013-07-18 18:23:00,97.5,58.9,29.06,WSW,250,2.6,4.3,28,0.00,,,0.00,WUHU216WMR100,2013-07-18 22:23:00,
2013-07-18 18:28:00,97.7,60.0,29.06,WSW,247,0.8,4.3,29,0.00,,,0.00,WUHU216WMR100,2013-07-18 22:28:00,
2013-07-18 18:33:00,96.8,59.2,29.06,WNW,292,2.0,2.9,29,0.00,,,0.00,WUHU216WMR100,2013-07-18 22:33:00,
2013-07-18 18:38:00,94.8,58.5,29.06,SW,225,0.8,3.6,30,0.00,,,0.00,WUHU216WMR100,2013-07-18 22:38:00,
2013-07-18 18:43:00,93.6,59.2,29.06,WNW,292,2.0,3.6,32,0.00,,,0.00,WUHU216WMR100,2013-07-18 22:43:00,
2013-07-18 18:48:00,93.9,59.5,29.06,SSW,202,1.0,2.7,32,0.00,,,0.00,WUHU216WMR100,2013-07-18 22:48:00,
2013-07-18 18:53:00,93.7,60.2,29.06,NW,315,2.2,3.8,33,0.00,,,0.00,WUHU216WMR100,2013-07-18 22:53:00,
2013-07-18 18:58:00,93.7,61.0,29.06,NW,315,0.0,3.8,34,0.00,,,0.00,WUHU216WMR100,2013-07-18 22:58:00,
2013-07-18 19:03:00,93.7,61.0,29.06,West,270,0.8,3.4,34,0.00,,,0.00,WUHU216WMR100,2013-07-18 23:03:00,
2013-07-18 19:08:00,93.4,61.6,29.06,WNW,292,2.2,3.6,35,0.00,,,0.00,WUHU216WMR100,2013-07-18 23:08:00,
2013-07-18 19:13:00,92.3,62.2,29.06,WNW,292,0.1,3.6,37,0.00,,,0.00,WUHU216WMR100,2013-07-18 23:13:00,
2013-07-18 19:18:00,91.6,62.4,29.06,WNW,292,0.0,2.2,38,0.00,,,0.00,WUHU216WMR100,2013-07-18 23:18:00,
2013-07-18 19:23:00,92.1,62.8,29.06,WNW,292,1.1,2.2,38,0.00,,,0.00,WUHU216WMR100,2013-07-18 23:23:00,
2013-07-18 19:28:00,92.7,63.3,29.06,WNW,292,0.3,2.5,38,0.00,,,0.00,WUHU216WMR100,2013-07-18 23:28:00,
2013-07-18 19:33:00,92.7,63.3,29.06,WNW,292,2.5,2.9,38,0.00,,,0.00,WUHU216WMR100,2013-07-18 23:33:00,
2013-07-18 19:38:00,91.8,63.3,29.06,WNW,292,3.4,4.7,39,0.00,,,0.00,WUHU216WMR100,2013-07-18 23:38:00,
2013-07-18 19:43:00,91.4,63.7,29.06,NNW,337,1.3,4.7,40,0.00,,,0.00,WUHU216WMR100,2013-07-18 23:43:00,
2013-07-18 19:48:00,91.4,63.7,29.06,West,270,2.2,3.6,40,0.00,,,0.00,WUHU216WMR100,2013-07-18 23:48:00,
2013-07-18 19:53:00,91.2,64.2,29.06,West,270,0.9,3.6,41,0.00,,,0.00,WUHU216WMR100,2013-07-18 23:53:00,
2013-07-18 19:58:00,90.7,63.8,29.06,West,270,0.1,2.7,41,0.00,,,0.00,WUHU216WMR100,2013-07-18 23:58:00,
2013-07-18 20:03:00,90.1,63.2,29.06,WNW,292,2.0,4.9,41,0.00,,,0.00,WUHU216WMR100,2013-07-19 00:03:00,
2013-07-18 20:08:00,89.6,63.5,29.06,NW,315,0.0,4.9,42,0.00,,,0.00,WUHU216WMR100,2013-07-19 00:08:00,
2013-07-18 20:13:00,89.2,63.8,29.06,NW,315,0.0,3.4,43,0.00,,,0.00,WUHU216WMR100,2013-07-19 00:13:00,
2013-07-18 20:18:00,88.5,63.9,29.06,NW,315,0.0,2.0,44,0.00,,,0.00,WUHU216WMR100,2013-07-19 00:18:00,
2013-07-18 20:23:00,87.8,63.9,29.06,NW,315,0.0,2.0,45,0.00,,,0.00,WUHU216WMR100,2013-07-19 00:23:00,
2013-07-18 20:28:00,87.1,63.9,29.06,NW,315,0.0,2.7,46,0.00,,,0.00,WUHU216WMR100,2013-07-19 00:28:00,
2013-07-18 20:33:00,86.7,64.8,29.06,NW,315,1.8,3.1,48,0.00,,,0.00,WUHU216WMR100,2013-07-19 00:33:00,
2013-07-18 20:38:00,86.2,64.9,29.06,NW,315,1.1,3.1,49,0.00,,,0.00,WUHU216WMR100,2013-07-19 00:38:00,
2013-07-18 20:43:00,85.6,65.6,29.06,NW,315,0.0,2.2,51,0.00,,,0.00,WUHU216WMR100,2013-07-19 00:43:00,
2013-07-18 20:48:00,85.3,65.9,29.06,NW,315,0.0,0.0,52,0.00,,,0.00,WUHU216WMR100,2013-07-19 00:48:00,
2013-07-18 20:53:00,84.7,65.9,29.06,NW,315,0.0,0.0,53,0.00,,,0.00,WUHU216WMR100,2013-07-19 00:53:00,
2013-07-18 20:58:00,84.2,65.4,29.06,NW,315,0.0,0.0,53,0.00,,,0.00,WUHU216WMR100,2013-07-19 00:58:00,
2013-07-18 21:03:00,84.0,66.3,29.06,NW,315,0.0,0.0,55,0.00,,,0.00,WUHU216WMR100,2013-07-19 01:03:00,
2013-07-18 21:08:00,83.7,66.6,29.06,NW,315,0.0,0.0,56,0.00,,,0.00,WUHU216WMR100,2013-07-19 01:08:00,
2013-07-18 21:13:00,83.3,66.7,29.06,NW,315,0.0,0.0,57,0.00,,,0.00,WUHU216WMR100,2013-07-19 01:13:00,
2013-07-18 21:18:00,83.1,67.0,29.06,NW,315,0.0,0.0,58,0.00,,,0.00,WUHU216WMR100,2013-07-19 01:18:00,
2013-07-18 21:23:00,82.9,67.3,29.06,NW,315,0.0,0.0,59,0.00,,,0.00,WUHU216WMR100,2013-07-19 01:23:00,
2013-07-18 21:28:00,82.8,67.7,29.06,NW,315,0.0,0.0,60,0.00,,,0.00,WUHU216WMR100,2013-07-19 01:28:00,
2013-07-18 21:34:00,82.4,67.4,29.06,NW,315,0.0,0.0,60,0.00,,,0.00,WUHU216WMR100,2013-07-19 01:34:00,
2013-07-18 21:39:00,82.0,67.0,29.06,NW,315,0.0,0.0,60,0.00,,,0.00,WUHU216WMR100,2013-07-19 01:39:00,
2013-07-18 21:44:00,81.9,67.4,29.06,NW,315,0.0,0.0,61,0.00,,,0.00,WUHU216WMR100,2013-07-19 01:44:00,
2013-07-18 21:49:00,81.7,67.7,29.06,NW,315,0.0,0.0,62,0.00,,,0.00,WUHU216WMR100,2013-07-19 01:49:00,
2013-07-18 21:54:00,81.5,67.9,29.06,NW,315,0.0,0.0,63,0.00,,,0.00,WUHU216WMR100,2013-07-19 01:54:00,
2013-07-18 21:59:00,81.1,67.6,29.06,NW,315,0.0,0.0,63,0.00,,,0.00,WUHU216WMR100,2013-07-19 01:59:00,
2013-07-18 22:04:00,81.0,67.9,29.06,NW,315,0.0,0.0,64,0.00,,,0.00,WUHU216WMR100,2013-07-19 02:04:00,
2013-07-18 22:09:00,80.8,67.7,29.06,NW,315,0.0,0.0,64,0.00,,,0.00,WUHU216WMR100,2013-07-19 02:09:00,
2013-07-18 22:14:00,80.4,67.8,29.06,NW,315,0.0,0.0,65,0.00,,,0.00,WUHU216WMR100,2013-07-19 02:14:00,
2013-07-18 22:19:00,80.2,67.6,29.06,NW,315,0.0,0.0,65,0.00,,,0.00,WUHU216WMR100,2013-07-19 02:19:00,
2013-07-18 22:24:00,80.1,68.0,29.06,NW,315,0.0,0.0,66,0.00,,,0.00,WUHU216WMR100,2013-07-19 02:24:00,
2013-07-18 22:29:00,80.1,68.0,29.06,NW,315,0.0,0.0,66,0.00,,,0.00,WUHU216WMR100,2013-07-19 02:29:00,
2013-07-18 22:34:00,79.9,67.8,29.06,NW,315,0.0,0.0,66,0.00,,,0.00,WUHU216WMR100,2013-07-19 02:34:00,
2013-07-18 22:39:00,79.7,67.6,29.06,NW,315,0.0,0.0,66,0.00,,,0.00,WUHU216WMR100,2013-07-19 02:39:00,
2013-07-18 22:44:00,79.5,67.8,29.06,NW,315,0.0,0.0,67,0.00,,,0.00,WUHU216WMR100,2013-07-19 02:44:00,
2013-07-18 22:49:00,79.3,67.6,29.06,NW,315,0.0,0.0,67,0.00,,,0.00,WUHU216WMR100,2013-07-19 02:49:00,
2013-07-18 22:54:00,79.2,67.5,29.06,NW,315,0.0,0.0,67,0.00,,,0.00,WUHU216WMR100,2013-07-19 02:54:00,
2013-07-18 22:59:00,79.0,67.8,29.06,NW,315,0.0,0.0,68,0.00,,,0.00,WUHU216WMR100,2013-07-19 02:59:00,
2013-07-18 23:04:00,78.8,67.6,29.06,NW,315,0.0,0.0,68,0.00,,,0.00,WUHU216WMR100,2013-07-19 03:04:00,
2013-07-18 23:09:00,78.6,67.4,29.06,NW,315,0.0,0.0,68,0.00,,,0.00,WUHU216WMR100,2013-07-19 03:09:00,
2013-07-18 23:14:00,78.6,67.8,29.06,NW,315,0.0,0.0,69,0.00,,,0.00,WUHU216WMR100,2013-07-19 03:14:00,
2013-07-18 23:19:00,78.4,67.6,29.06,NW,315,0.0,0.0,69,0.00,,,0.00,WUHU216WMR100,2013-07-19 03:19:00,
2013-07-18 23:24:00,78.3,67.5,29.06,NW,315,0.0,0.0,69,0.00,,,0.00,WUHU216WMR100,2013-07-19 03:24:00,
2013-07-18 23:29:00,78.1,67.7,29.06,NW,315,0.0,0.0,70,0.00,,,0.00,WUHU216WMR100,2013-07-19 03:29:00,
2013-07-18 23:34:00,78.1,67.7,29.06,NW,315,0.0,0.0,70,0.00,,,0.00,WUHU216WMR100,2013-07-19 03:34:00,
2013-07-18 23:39:00,78.1,68.1,29.06,NW,315,0.0,0.0,71,0.00,,,0.00,WUHU216WMR100,2013-07-19 03:39:00,
2013-07-18 23:44:00,77.9,67.9,29.06,NW,315,0.0,0.0,71,0.00,,,0.00,WUHU216WMR100,2013-07-19 03:44:00,
2013-07-18 23:49:00,77.7,68.1,29.06,NW,315,0.0,0.0,72,0.00,,,0.00,WUHU216WMR100,2013-07-19 03:49:00,
2013-07-18 23:54:00,77.5,68.0,29.06,NW,315,0.0,0.0,72,0.00,,,0.00,WUHU216WMR100,2013-07-19 03:54:00,
2013-07-18 23:59:00,77.4,67.9,29.06,NW,315,0.0,0.0,72,0.00,,,0.00,WUHU216WMR100,2013-07-19 03:59:00,